Search for airport 
image banner adimage banner adimage banner ad
image banner ad

1Q5 - Gravelly Valley

Located in Upper Lake, United States

ICAO - 1Q5, IATA -

Data provided by Airmate  

General information

Coordinates: N39°27'3" W122°57'17"
Elevation is 1900 feet MSL.
Magnetic variation is 17° East
View others Airports in California

Operational data

Special qualification required
Current time UTC:
Current local time:
Weather at : KUKI - Ukiah Muni ( 42 km )
METAR: KUKI 221240Z AUTO 00000KT 10SM BKN010 13/10 A2990 RMK AO2 T01280100
TAF: KUKI 221149Z 2212/2312 VRB04KT P6SM SKC TEMPO 2213/2215 SCT008 FM221700 13004KT P6SM SKC FM222000 15010G18KT P6SM SKC FM230400 15006KT P6SM SKC
View NOTAMs / SUP AIP / TFR affecting this airport [VIEW]
Communications frequencies: [VIEW]

Runways:

RWY identifierQFULength (ft)Width (ft)SurfaceLDA (ft)
014050200GRAVEL
194050200GRAVEL

Airport contact information

Address: Upper Lake United States

Satellite view of 1Q5